KAL147 CYVR-KSFO
Flight info
| Callsign | KAL147 |
|---|---|
| Flight time | N/A |
| Altitude | 35000 |
| Route | VIXOR DCT ELMAA Q1 ETCHY DCT MLBEC BDEGA4 |
| Aircraft | A3ST/H-SDFGHIRWY/LB1 |
Departure
| Time | N/A |
|---|---|
| Airport | Vancouver International Airport (CYVR) |
Arrival
| Time | 2026-05-05 06:06 |
|---|---|
| Airport | San Francisco International Airport (KSFO) |
| Time | Latitude | Longitude | Altitude | Speed | Heading |
|---|---|---|---|---|---|
| 2026-05-05 04:22 | 48.46626 | -123.47179 | 23775 ft | 449 kts | 178° |
| 2026-05-05 04:22 | 48.43486 | -123.47028 | 24367 ft | 454 kts | 178° |
| 2026-05-05 04:22 | 48.40321 | -123.46873 | 24958 ft | 458 kts | 178° |
| 2026-05-05 04:22 | 48.37164 | -123.46719 | 25552 ft | 463 kts | 178° |
| 2026-05-05 04:23 | 48.33931 | -123.46562 | 26177 ft | 465 kts | 178° |
| 2026-05-05 04:23 | 48.30690 | -123.46403 | 26859 ft | 466 kts | 178° |
| 2026-05-05 04:23 | 48.27488 | -123.46249 | 27580 ft | 465 kts | 178° |
| 2026-05-05 04:23 | 48.24250 | -123.46095 | 28350 ft | 464 kts | 178° |
| 2026-05-05 04:24 | 48.21039 | -123.45938 | 29123 ft | 460 kts | 178° |
| 2026-05-05 04:24 | 48.17880 | -123.45788 | 29855 ft | 457 kts | 178° |
| 2026-05-05 04:24 | 48.14698 | -123.45638 | 30543 ft | 455 kts | 178° |
| 2026-05-05 04:25 | 48.08427 | -123.45349 | 31872 ft | 450 kts | 178° |
| 2026-05-05 04:25 | 48.05308 | -123.45205 | 32520 ft | 447 kts | 178° |
| 2026-05-05 04:25 | 48.02241 | -123.45057 | 33101 ft | 444 kts | 177° |
| 2026-05-05 04:25 | 47.99130 | -123.44907 | 33643 ft | 443 kts | 177° |
| 2026-05-05 04:26 | 47.95979 | -123.44756 | 34164 ft | 442 kts | 177° |
| 2026-05-05 04:26 | 47.92898 | -123.44608 | 34652 ft | 442 kts | 177° |
| 2026-05-05 04:26 | 47.89776 | -123.44460 | 35022 ft | 444 kts | 177° |
| 2026-05-05 04:27 | 47.83513 | -123.44156 | 34980 ft | 443 kts | 176° |
| 2026-05-05 04:27 | 47.77361 | -123.43867 | 34981 ft | 443 kts | 176° |
| 2026-05-05 04:28 | 47.71212 | -123.43578 | 34981 ft | 443 kts | 177° |
| 2026-05-05 04:28 | 47.65081 | -123.43285 | 34978 ft | 442 kts | 176° |
| 2026-05-05 04:29 | 47.58962 | -123.43002 | 34979 ft | 442 kts | 176° |
| 2026-05-05 04:29 | 47.52781 | -123.42714 | 34975 ft | 443 kts | 176° |
| 2026-05-05 04:30 | 47.46640 | -123.42427 | 34968 ft | 443 kts | 176° |
| 2026-05-05 04:30 | 47.40505 | -123.42142 | 34947 ft | 443 kts | 176° |
| 2026-05-05 04:31 | 47.34357 | -123.41854 | 34933 ft | 443 kts | 176° |
| 2026-05-05 04:31 | 47.28229 | -123.41567 | 34932 ft | 442 kts | 176° |
| 2026-05-05 04:32 | 47.22111 | -123.41285 | 34932 ft | 442 kts | 176° |
| 2026-05-05 04:32 | 47.15966 | -123.41008 | 34938 ft | 443 kts | 176° |
| 2026-05-05 04:33 | 47.09822 | -123.40782 | 34939 ft | 443 kts | 176° |
| 2026-05-05 04:33 | 47.03655 | -123.40585 | 34943 ft | 444 kts | 176° |
| 2026-05-05 04:34 | 46.97508 | -123.40389 | 34950 ft | 443 kts | 176° |
| 2026-05-05 04:34 | 46.91409 | -123.40181 | 34948 ft | 443 kts | 176° |
| 2026-05-05 04:35 | 46.85255 | -123.39984 | 34924 ft | 442 kts | 176° |
| 2026-05-05 04:35 | 46.79103 | -123.39793 | 34932 ft | 443 kts | 176° |
| 2026-05-05 04:36 | 46.72973 | -123.39609 | 34937 ft | 441 kts | 176° |
| 2026-05-05 04:36 | 46.66849 | -123.39410 | 34935 ft | 441 kts | 176° |
| 2026-05-05 04:37 | 46.60732 | -123.39216 | 34936 ft | 441 kts | 176° |
| 2026-05-05 04:37 | 46.54591 | -123.39026 | 34936 ft | 442 kts | 176° |
| 2026-05-05 04:38 | 46.48470 | -123.38835 | 34935 ft | 441 kts | 176° |
| 2026-05-05 04:38 | 46.42326 | -123.38651 | 34942 ft | 440 kts | 176° |
| 2026-05-05 04:39 | 46.36233 | -123.38459 | 34939 ft | 440 kts | 176° |
| 2026-05-05 04:39 | 46.30105 | -123.38264 | 34943 ft | 441 kts | 176° |
| 2026-05-05 04:40 | 46.23990 | -123.38081 | 34952 ft | 441 kts | 175° |
| 2026-05-05 04:40 | 46.17900 | -123.37893 | 34956 ft | 441 kts | 175° |
| 2026-05-05 04:41 | 46.11794 | -123.37705 | 34958 ft | 439 kts | 175° |
| 2026-05-05 04:41 | 46.05714 | -123.37517 | 34957 ft | 439 kts | 175° |
| 2026-05-05 04:42 | 45.99617 | -123.37332 | 34960 ft | 439 kts | 175° |
| 2026-05-05 04:42 | 45.93538 | -123.37147 | 34962 ft | 438 kts | 175° |
| 2026-05-05 04:43 | 45.87426 | -123.36961 | 34947 ft | 439 kts | 175° |
| 2026-05-05 04:43 | 45.81323 | -123.36774 | 34942 ft | 438 kts | 175° |
| 2026-05-05 04:44 | 45.75236 | -123.36595 | 34948 ft | 439 kts | 175° |
| 2026-05-05 04:44 | 45.69136 | -123.36404 | 34951 ft | 439 kts | 175° |
| 2026-05-05 04:45 | 45.63055 | -123.36224 | 34950 ft | 438 kts | 175° |
| 2026-05-05 04:45 | 45.57016 | -123.36041 | 34955 ft | 437 kts | 175° |
| 2026-05-05 04:46 | 45.50915 | -123.35856 | 34956 ft | 438 kts | 175° |
| 2026-05-05 04:46 | 45.44819 | -123.35679 | 34957 ft | 438 kts | 175° |
| 2026-05-05 04:47 | 45.38757 | -123.35494 | 34959 ft | 439 kts | 175° |
| 2026-05-05 04:47 | 45.32698 | -123.35313 | 34963 ft | 438 kts | 175° |
| 2026-05-05 04:48 | 45.26617 | -123.35131 | 34961 ft | 437 kts | 175° |
| 2026-05-05 04:48 | 45.20541 | -123.34955 | 34965 ft | 437 kts | 175° |
| 2026-05-05 04:49 | 45.14469 | -123.34776 | 34968 ft | 439 kts | 174° |
| 2026-05-05 04:49 | 45.08395 | -123.34592 | 34970 ft | 439 kts | 174° |
| 2026-05-05 04:50 | 45.02281 | -123.34415 | 34972 ft | 437 kts | 174° |
| 2026-05-05 04:50 | 44.96223 | -123.34233 | 34977 ft | 437 kts | 174° |
| 2026-05-05 04:51 | 44.90178 | -123.34056 | 34974 ft | 436 kts | 174° |
| 2026-05-05 04:51 | 44.84113 | -123.33879 | 34958 ft | 437 kts | 174° |
| 2026-05-05 04:52 | 44.78001 | -123.33699 | 34961 ft | 437 kts | 174° |
| 2026-05-05 04:52 | 44.71926 | -123.33524 | 34965 ft | 435 kts | 174° |
| 2026-05-05 04:53 | 44.65901 | -123.33341 | 34966 ft | 438 kts | 174° |
| 2026-05-05 04:53 | 44.59793 | -123.33175 | 34971 ft | 437 kts | 174° |
| 2026-05-05 04:54 | 44.53744 | -123.32996 | 34981 ft | 438 kts | 174° |
| 2026-05-05 04:54 | 44.47661 | -123.32800 | 34982 ft | 436 kts | 173° |
| 2026-05-05 04:55 | 44.41579 | -123.32552 | 34994 ft | 437 kts | 173° |
| 2026-05-05 04:55 | 44.35532 | -123.32313 | 34995 ft | 436 kts | 173° |
| 2026-05-05 04:56 | 44.29464 | -123.32071 | 34995 ft | 435 kts | 173° |
| 2026-05-05 04:56 | 44.23449 | -123.31824 | 35003 ft | 434 kts | 173° |
| 2026-05-05 04:57 | 44.17416 | -123.31583 | 35008 ft | 435 kts | 173° |
| 2026-05-05 04:57 | 44.11369 | -123.31340 | 35013 ft | 434 kts | 173° |
| 2026-05-05 04:58 | 44.05302 | -123.31105 | 35012 ft | 436 kts | 173° |
| 2026-05-05 04:58 | 43.99291 | -123.30866 | 35015 ft | 435 kts | 173° |
| 2026-05-05 04:59 | 43.93233 | -123.30622 | 35017 ft | 435 kts | 173° |
| 2026-05-05 04:59 | 43.87189 | -123.30390 | 34991 ft | 435 kts | 172° |
| 2026-05-05 05:00 | 43.81133 | -123.30145 | 34983 ft | 434 kts | 172° |
| 2026-05-05 05:00 | 43.75097 | -123.29906 | 34989 ft | 434 kts | 172° |
| 2026-05-05 05:01 | 43.69069 | -123.29672 | 34989 ft | 434 kts | 172° |
| 2026-05-05 05:01 | 43.63052 | -123.29435 | 34990 ft | 433 kts | 172° |
| 2026-05-05 05:02 | 43.57027 | -123.29202 | 34988 ft | 434 kts | 172° |
| 2026-05-05 05:02 | 43.51017 | -123.28968 | 34989 ft | 433 kts | 172° |
| 2026-05-05 05:03 | 43.44975 | -123.28729 | 34992 ft | 433 kts | 172° |
| 2026-05-05 05:03 | 43.38984 | -123.28500 | 34994 ft | 433 kts | 172° |
| 2026-05-05 05:04 | 43.32973 | -123.28262 | 35003 ft | 433 kts | 172° |
| 2026-05-05 05:04 | 43.26930 | -123.28030 | 35009 ft | 433 kts | 172° |
| 2026-05-05 05:05 | 43.20953 | -123.27804 | 35009 ft | 433 kts | 172° |
| 2026-05-05 05:05 | 43.14938 | -123.27561 | 35011 ft | 433 kts | 172° |
| 2026-05-05 05:06 | 43.08945 | -123.27339 | 35007 ft | 432 kts | 171° |
| 2026-05-05 05:06 | 43.02918 | -123.27101 | 35002 ft | 432 kts | 171° |
| 2026-05-05 05:07 | 42.96936 | -123.26872 | 34999 ft | 432 kts | 171° |
| 2026-05-05 05:07 | 42.90936 | -123.26644 | 35002 ft | 432 kts | 171° |
| 2026-05-05 05:08 | 42.84916 | -123.26418 | 34977 ft | 431 kts | 171° |
| 2026-05-05 05:08 | 42.78926 | -123.26180 | 34983 ft | 432 kts | 171° |
| 2026-05-05 05:09 | 42.72934 | -123.25957 | 34982 ft | 432 kts | 171° |
| 2026-05-05 05:09 | 42.66945 | -123.25736 | 34985 ft | 430 kts | 171° |
| 2026-05-05 05:10 | 42.60944 | -123.25500 | 34991 ft | 432 kts | 171° |
| 2026-05-05 05:10 | 42.54984 | -123.25275 | 34988 ft | 430 kts | 171° |
| 2026-05-05 05:11 | 42.48979 | -123.25051 | 34992 ft | 430 kts | 171° |
| 2026-05-05 05:11 | 42.42960 | -123.24838 | 34999 ft | 432 kts | 171° |
| 2026-05-05 05:12 | 42.36990 | -123.24618 | 35000 ft | 430 kts | 171° |
| 2026-05-05 05:12 | 42.31008 | -123.24389 | 34997 ft | 431 kts | 171° |
| 2026-05-05 05:13 | 42.24989 | -123.24165 | 34999 ft | 431 kts | 171° |
| 2026-05-05 05:13 | 42.18980 | -123.23953 | 35003 ft | 428 kts | 171° |
| 2026-05-05 05:14 | 42.13048 | -123.23729 | 35010 ft | 429 kts | 171° |
| 2026-05-05 05:14 | 42.07064 | -123.23504 | 35005 ft | 431 kts | 171° |
| 2026-05-05 05:15 | 42.01115 | -123.23293 | 35029 ft | 430 kts | 171° |
| 2026-05-05 05:15 | 41.95080 | -123.23074 | 35047 ft | 430 kts | 171° |
| 2026-05-05 05:16 | 41.89053 | -123.22849 | 35035 ft | 431 kts | 171° |
| 2026-05-05 05:16 | 41.83097 | -123.22642 | 35022 ft | 428 kts | 171° |
| 2026-05-05 05:17 | 41.77137 | -123.22415 | 35034 ft | 431 kts | 171° |
| 2026-05-05 05:17 | 41.71155 | -123.22201 | 35030 ft | 429 kts | 171° |
| 2026-05-05 05:18 | 41.65167 | -123.21986 | 35043 ft | 430 kts | 171° |
| 2026-05-05 05:18 | 41.59222 | -123.21777 | 35032 ft | 428 kts | 171° |
| 2026-05-05 05:19 | 41.53275 | -123.21568 | 35037 ft | 430 kts | 171° |
| 2026-05-05 05:19 | 41.47302 | -123.21359 | 35033 ft | 429 kts | 171° |
| 2026-05-05 05:20 | 41.41320 | -123.21149 | 35036 ft | 430 kts | 171° |
| 2026-05-05 05:20 | 41.35368 | -123.20958 | 35026 ft | 428 kts | 171° |
| 2026-05-05 05:21 | 41.29370 | -123.20778 | 35028 ft | 430 kts | 171° |
| 2026-05-05 05:21 | 41.23439 | -123.20630 | 35016 ft | 428 kts | 171° |
| 2026-05-05 05:22 | 41.17445 | -123.20481 | 35024 ft | 429 kts | 172° |
| 2026-05-05 05:22 | 41.11476 | -123.20328 | 35027 ft | 429 kts | 171° |
| 2026-05-05 05:23 | 41.05505 | -123.20179 | 35034 ft | 429 kts | 171° |
| 2026-05-05 05:23 | 40.99543 | -123.20028 | 35030 ft | 429 kts | 171° |
| 2026-05-05 05:24 | 40.93570 | -123.19878 | 35040 ft | 429 kts | 171° |
| 2026-05-05 05:24 | 40.87576 | -123.19726 | 35021 ft | 429 kts | 171° |
| 2026-05-05 05:25 | 40.81584 | -123.19582 | 35008 ft | 430 kts | 171° |
| 2026-05-05 05:25 | 40.75613 | -123.19420 | 35011 ft | 429 kts | 171° |
| 2026-05-05 05:26 | 40.69672 | -123.19275 | 34903 ft | 429 kts | 171° |
| 2026-05-05 05:26 | 40.63661 | -123.19131 | 34995 ft | 429 kts | 171° |
| 2026-05-05 05:27 | 40.57704 | -123.18982 | 35016 ft | 431 kts | 171° |
| 2026-05-05 05:27 | 40.48750 | -123.18758 | 35019 ft | 430 kts | 171° |
| 2026-05-05 05:28 | 40.42733 | -123.18607 | 35020 ft | 430 kts | 171° |
| 2026-05-05 05:28 | 40.36801 | -123.18462 | 35017 ft | 429 kts | 171° |
| 2026-05-05 05:29 | 40.30804 | -123.18313 | 35026 ft | 430 kts | 171° |
| 2026-05-05 05:29 | 40.24816 | -123.18168 | 35028 ft | 430 kts | 171° |
| 2026-05-05 05:30 | 40.18824 | -123.18022 | 35030 ft | 430 kts | 171° |
| 2026-05-05 05:30 | 40.12839 | -123.17864 | 35036 ft | 428 kts | 171° |
| 2026-05-05 05:31 | 40.06893 | -123.17725 | 35040 ft | 432 kts | 171° |
| 2026-05-05 05:31 | 40.00909 | -123.17584 | 35036 ft | 429 kts | 171° |
| 2026-05-05 05:32 | 39.94944 | -123.17414 | 35036 ft | 429 kts | 170° |
| 2026-05-05 05:32 | 39.88956 | -123.17136 | 35023 ft | 428 kts | 170° |
| 2026-05-05 05:33 | 39.82981 | -123.16860 | 35011 ft | 427 kts | 170° |
| 2026-05-05 05:33 | 39.77048 | -123.16583 | 35006 ft | 429 kts | 170° |
| 2026-05-05 05:34 | 39.71051 | -123.16309 | 35004 ft | 430 kts | 170° |
| 2026-05-05 05:34 | 39.65096 | -123.16031 | 35016 ft | 430 kts | 169° |
| 2026-05-05 05:35 | 39.59098 | -123.15752 | 35009 ft | 430 kts | 170° |
| 2026-05-05 05:35 | 39.53107 | -123.15476 | 35003 ft | 432 kts | 170° |
| 2026-05-05 05:36 | 39.47117 | -123.15206 | 35003 ft | 431 kts | 170° |
| 2026-05-05 05:36 | 39.41105 | -123.14932 | 34982 ft | 435 kts | 170° |
| 2026-05-05 05:37 | 39.38077 | -123.14791 | 34809 ft | 435 kts | 169° |
| 2026-05-05 05:37 | 39.35076 | -123.14659 | 34564 ft | 433 kts | 170° |
| 2026-05-05 05:37 | 39.32069 | -123.14523 | 34211 ft | 433 kts | 170° |
| 2026-05-05 05:37 | 39.29081 | -123.14379 | 33828 ft | 430 kts | 170° |
| 2026-05-05 05:38 | 39.26066 | -123.14239 | 33433 ft | 431 kts | 170° |
| 2026-05-05 05:38 | 39.23069 | -123.14100 | 33057 ft | 433 kts | 170° |
| 2026-05-05 05:38 | 39.20051 | -123.13963 | 32677 ft | 432 kts | 171° |
| 2026-05-05 05:38 | 39.17056 | -123.13820 | 32304 ft | 432 kts | 171° |
| 2026-05-05 05:39 | 39.14070 | -123.13683 | 31931 ft | 431 kts | 171° |
| 2026-05-05 05:39 | 39.11079 | -123.13551 | 31558 ft | 430 kts | 171° |
| 2026-05-05 05:39 | 39.08174 | -123.13088 | 31155 ft | 414 kts | 156° |
| 2026-05-05 05:39 | 39.05689 | -123.11476 | 30789 ft | 396 kts | 137° |
| 2026-05-05 05:40 | 39.03493 | -123.09321 | 30444 ft | 396 kts | 134° |
| 2026-05-05 05:40 | 39.01237 | -123.07169 | 30050 ft | 401 kts | 137° |
| 2026-05-05 05:40 | 38.98911 | -123.05157 | 29659 ft | 402 kts | 140° |
| 2026-05-05 05:40 | 38.96556 | -123.03225 | 29276 ft | 406 kts | 141° |
| 2026-05-05 05:41 | 38.94183 | -123.01305 | 28998 ft | 408 kts | 141° |
| 2026-05-05 05:41 | 38.91743 | -122.99342 | 28999 ft | 412 kts | 141° |
| 2026-05-05 05:41 | 38.86716 | -122.95609 | 28626 ft | 427 kts | 152° |
| 2026-05-05 05:42 | 38.83851 | -122.94554 | 28335 ft | 430 kts | 161° |
| 2026-05-05 05:42 | 38.80921 | -122.93787 | 27943 ft | 430 kts | 163° |
| 2026-05-05 05:42 | 38.78000 | -122.93040 | 27439 ft | 430 kts | 162° |
| 2026-05-05 05:42 | 38.75077 | -122.92231 | 26891 ft | 427 kts | 161° |
| 2026-05-05 05:43 | 38.72203 | -122.91386 | 26352 ft | 427 kts | 161° |
| 2026-05-05 05:43 | 38.69285 | -122.90519 | 25818 ft | 427 kts | 161° |
| 2026-05-05 05:43 | 38.66412 | -122.89658 | 25290 ft | 424 kts | 161° |
| 2026-05-05 05:43 | 38.63567 | -122.88818 | 24770 ft | 422 kts | 161° |
| 2026-05-05 05:44 | 38.60691 | -122.87971 | 24243 ft | 417 kts | 161° |
| 2026-05-05 05:44 | 38.57899 | -122.87151 | 23736 ft | 416 kts | 161° |
| 2026-05-05 05:44 | 38.55068 | -122.86324 | 23226 ft | 413 kts | 161° |
| 2026-05-05 05:44 | 38.52310 | -122.85520 | 22725 ft | 408 kts | 161° |
| 2026-05-05 05:45 | 38.49543 | -122.84698 | 22214 ft | 405 kts | 161° |
| 2026-05-05 05:45 | 38.46829 | -122.83890 | 21770 ft | 402 kts | 161° |
| 2026-05-05 05:45 | 38.44097 | -122.83089 | 21338 ft | 400 kts | 161° |
| 2026-05-05 05:45 | 38.41412 | -122.82302 | 20954 ft | 398 kts | 161° |
| 2026-05-05 05:46 | 38.38695 | -122.81506 | 20574 ft | 398 kts | 161° |
| 2026-05-05 05:46 | 38.36020 | -122.80724 | 20202 ft | 398 kts | 161° |
| 2026-05-05 05:46 | 38.33314 | -122.79929 | 19823 ft | 396 kts | 161° |
| 2026-05-05 05:46 | 38.30614 | -122.79134 | 19447 ft | 395 kts | 161° |
| 2026-05-05 05:47 | 38.27976 | -122.78360 | 19081 ft | 394 kts | 161° |
| 2026-05-05 05:47 | 38.25301 | -122.77580 | 18708 ft | 392 kts | 161° |
| 2026-05-05 05:47 | 38.22637 | -122.76798 | 18331 ft | 391 kts | 161° |
| 2026-05-05 05:47 | 38.19993 | -122.76036 | 17974 ft | 387 kts | 161° |
| 2026-05-05 05:48 | 38.17395 | -122.75286 | 17564 ft | 387 kts | 161° |
| 2026-05-05 05:48 | 38.14791 | -122.74520 | 17135 ft | 385 kts | 161° |
| 2026-05-05 05:48 | 38.12176 | -122.73772 | 16716 ft | 382 kts | 161° |
| 2026-05-05 05:48 | 38.09591 | -122.73018 | 16341 ft | 377 kts | 161° |
| 2026-05-05 05:49 | 38.07070 | -122.72274 | 16053 ft | 375 kts | 161° |
| 2026-05-05 05:49 | 38.04505 | -122.71521 | 15718 ft | 378 kts | 161° |
| 2026-05-05 05:49 | 38.01931 | -122.70781 | 15378 ft | 378 kts | 162° |
| 2026-05-05 05:49 | 37.99395 | -122.70048 | 15046 ft | 373 kts | 161° |
| 2026-05-05 05:50 | 37.96886 | -122.69309 | 14689 ft | 371 kts | 162° |
| 2026-05-05 05:50 | 37.94352 | -122.68579 | 14351 ft | 372 kts | 162° |
| 2026-05-05 05:50 | 37.91839 | -122.67850 | 14014 ft | 370 kts | 162° |
| 2026-05-05 05:50 | 37.89450 | -122.66754 | 13624 ft | 357 kts | 144° |
| 2026-05-05 05:51 | 37.87499 | -122.64948 | 13238 ft | 345 kts | 134° |
| 2026-05-05 05:51 | 37.85688 | -122.62961 | 12824 ft | 344 kts | 133° |
| 2026-05-05 05:51 | 37.83887 | -122.60965 | 12392 ft | 343 kts | 134° |
| 2026-05-05 05:51 | 37.82098 | -122.59020 | 11954 ft | 341 kts | 135° |
| 2026-05-05 05:52 | 37.80313 | -122.57110 | 11162 ft | 334 kts | 136° |
| 2026-05-05 05:52 | 37.78548 | -122.55219 | 10005 ft | 330 kts | 136° |
| 2026-05-05 05:52 | 37.76902 | -122.53473 | 10493 ft | 294 kts | 136° |
| 2026-05-05 05:52 | 37.75352 | -122.51847 | 10785 ft | 293 kts | 136° |
| 2026-05-05 05:53 | 37.73767 | -122.50185 | 10909 ft | 298 kts | 136° |
| 2026-05-05 05:53 | 37.72181 | -122.48509 | 10946 ft | 300 kts | 136° |
| 2026-05-05 05:53 | 37.70575 | -122.46807 | 10958 ft | 300 kts | 136° |
| 2026-05-05 05:53 | 37.68975 | -122.45103 | 10960 ft | 301 kts | 136° |
| 2026-05-05 05:54 | 37.67384 | -122.43408 | 10960 ft | 301 kts | 136° |
| 2026-05-05 05:54 | 37.65773 | -122.41698 | 10959 ft | 300 kts | 136° |
| 2026-05-05 05:54 | 37.64169 | -122.39995 | 10959 ft | 300 kts | 136° |
| 2026-05-05 05:54 | 37.62575 | -122.38302 | 10961 ft | 300 kts | 136° |
| 2026-05-05 05:55 | 37.60864 | -122.36897 | 10768 ft | 294 kts | 150° |
| 2026-05-05 05:55 | 37.59009 | -122.35780 | 10289 ft | 295 kts | 152° |
| 2026-05-05 05:55 | 37.57167 | -122.34684 | 9770 ft | 296 kts | 153° |
| 2026-05-05 05:55 | 37.55304 | -122.33549 | 9300 ft | 295 kts | 153° |
| 2026-05-05 05:56 | 37.53460 | -122.32411 | 8869 ft | 293 kts | 153° |
| 2026-05-05 05:56 | 37.51651 | -122.31290 | 8454 ft | 290 kts | 153° |
| 2026-05-05 05:56 | 37.49860 | -122.30175 | 8049 ft | 287 kts | 153° |
| 2026-05-05 05:56 | 37.48071 | -122.29057 | 7628 ft | 284 kts | 153° |
| 2026-05-05 05:57 | 37.46320 | -122.27962 | 7213 ft | 282 kts | 153° |
| 2026-05-05 05:57 | 37.44559 | -122.26863 | 6792 ft | 279 kts | 152° |
| 2026-05-05 05:57 | 37.42845 | -122.25793 | 6393 ft | 276 kts | 153° |
| 2026-05-05 05:57 | 37.41143 | -122.24724 | 6074 ft | 269 kts | 153° |
| 2026-05-05 05:58 | 37.39502 | -122.23684 | 5767 ft | 263 kts | 152° |
| 2026-05-05 05:58 | 37.38079 | -122.22291 | 5408 ft | 257 kts | 124° |
| 2026-05-05 05:58 | 37.37561 | -122.20211 | 5000 ft | 253 kts | 89° |
| 2026-05-05 05:58 | 37.37883 | -122.18061 | 4547 ft | 253 kts | 69° |
| 2026-05-05 05:59 | 37.38782 | -122.16175 | 4095 ft | 252 kts | 47° |
| 2026-05-05 05:59 | 37.40208 | -122.14961 | 3686 ft | 248 kts | 16° |
| 2026-05-05 05:59 | 37.41910 | -122.14677 | 3327 ft | 243 kts | 4° |
| 2026-05-05 05:59 | 37.43587 | -122.14452 | 2989 ft | 240 kts | 6° |
| 2026-05-05 06:00 | 37.45193 | -122.14586 | 2935 ft | 224 kts | 347° |
| 2026-05-05 06:00 | 37.46664 | -122.15036 | 2939 ft | 214 kts | 345° |
| 2026-05-05 06:00 | 37.48103 | -122.15494 | 2948 ft | 213 kts | 345° |
| 2026-05-05 06:00 | 37.49546 | -122.15958 | 2955 ft | 211 kts | 345° |
| 2026-05-05 06:01 | 37.50969 | -122.16421 | 2956 ft | 210 kts | 345° |
| 2026-05-05 06:01 | 37.52378 | -122.16888 | 2958 ft | 209 kts | 341° |
| 2026-05-05 06:01 | 37.53466 | -122.17931 | 3046 ft | 188 kts | 305° |
| 2026-05-05 06:01 | 37.54180 | -122.19260 | 2980 ft | 182 kts | 307° |
| 2026-05-05 06:02 | 37.54900 | -122.20535 | 2740 ft | 179 kts | 305° |
| 2026-05-05 06:02 | 37.55515 | -122.21886 | 2496 ft | 177 kts | 298° |
| 2026-05-05 06:02 | 37.56082 | -122.23235 | 2257 ft | 172 kts | 298° |
| 2026-05-05 06:02 | 37.56617 | -122.24515 | 2015 ft | 160 kts | 298° |
| 2026-05-05 06:03 | 37.57112 | -122.25697 | 1818 ft | 143 kts | 298° |
| 2026-05-05 06:03 | 37.57557 | -122.26743 | 1625 ft | 133 kts | 298° |
| 2026-05-05 06:03 | 37.57990 | -122.27762 | 1440 ft | 130 kts | 299° |
| 2026-05-05 06:03 | 37.58410 | -122.28753 | 1273 ft | 127 kts | 298° |
| 2026-05-05 06:04 | 37.58829 | -122.29745 | 1109 ft | 127 kts | 298° |
| 2026-05-05 06:04 | 37.59242 | -122.30724 | 941 ft | 127 kts | 299° |
| 2026-05-05 06:04 | 37.59655 | -122.31703 | 772 ft | 127 kts | 299° |
| 2026-05-05 06:04 | 37.60067 | -122.32679 | 598 ft | 125 kts | 299° |
| 2026-05-05 06:05 | 37.60480 | -122.33646 | 430 ft | 125 kts | 299° |
| 2026-05-05 06:05 | 37.60892 | -122.34618 | 273 ft | 125 kts | 298° |
| 2026-05-05 06:05 | 37.61295 | -122.35584 | 105 ft | 125 kts | 299° |
| 2026-05-05 06:05 | 37.61687 | -122.36516 | 23 ft | 111 kts | 299° |
| 2026-05-05 06:06 | 37.62003 | -122.37258 | 28 ft | 79 kts | 298° |
| 2026-05-05 06:06 | 37.62236 | -122.37814 | 36 ft | 73 kts | 298° |
| 2026-05-05 06:06 | 37.62465 | -122.38364 | 37 ft | 59 kts | 291° |
| 2026-05-05 06:06 | 37.62499 | -122.38698 | 37 ft | 27 kts | 271° |
| 2026-05-05 06:07 | 37.62439 | -122.38881 | 37 ft | 22 kts | 212° |
| 2026-05-05 06:07 | 37.62366 | -122.38933 | 38 ft | 6 kts | 211° |
| 2026-05-05 06:07 | 37.62344 | -122.38972 | 38 ft | 4 kts | 243° |
| 2026-05-05 06:07 | 37.62334 | -122.39002 | 38 ft | 3 kts | 251° |
| 2026-05-05 06:08 | 37.62331 | -122.39015 | 38 ft | 4 kts | 252° |
| 2026-05-05 06:08 | 37.62320 | -122.39056 | 38 ft | 8 kts | 252° |
| 2026-05-05 06:08 | 37.62287 | -122.39151 | 38 ft | 14 kts | 230° |
| 2026-05-05 06:08 | 37.62199 | -122.39226 | 39 ft | 15 kts | 209° |
| 2026-05-05 06:09 | 37.62107 | -122.39288 | 40 ft | 14 kts | 208° |
| 2026-05-05 06:09 | 37.62031 | -122.39338 | 40 ft | 9 kts | 208° |
| 2026-05-05 06:09 | 37.61991 | -122.39398 | 40 ft | 9 kts | 249° |
| 2026-05-05 06:09 | 37.61968 | -122.39493 | 40 ft | 13 kts | 252° |
| 2026-05-05 06:10 | 37.61946 | -122.39593 | 40 ft | 9 kts | 271° |
| 2026-05-05 06:10 | 37.61930 | -122.39665 | 39 ft | 7 kts | 243° |
| 2026-05-05 06:10 | 37.61910 | -122.39713 | 39 ft | 5 kts | 243° |
| 2026-05-05 06:10 | 37.61900 | -122.39737 | 39 ft | 0 kts | 243° |